Time;durP1;ratioP1;P1;durP2;ratioP2;P2;SDS_P1;SDS_P2;PMS_P1;PMS_P2;Temp;Humidity;BMP_temperature;BMP_pressure;BME280_temperature;BME280_humidity;BME280_pressure;Samples;Min_cycle;Max_cycle;Signal;HPM_P1;HPM_P2
2023/03/24 00:00:31;;;;;;;10.63;3.50;;;11.50;99.90;;;;;;4195248;28;20041;-84
2023/03/24 00:02:36;;;;;;;9.15;2.30;;;11.60;99.90;;;;;;4195446;28;20124;-84
2023/03/24 00:04:41;;;;;;;8.00;3.40;;;11.60;99.90;;;;;;4188379;28;20416;-84
2023/03/24 00:06:43;;;;;;;8.40;2.95;;;11.60;99.90;;;;;;4184008;28;20062;-84
2023/03/24 00:08:46;;;;;;;6.85;2.90;;;11.60;99.90;;;;;;4188752;28;20055;-84
2023/03/24 00:10:47;;;;;;;8.57;3.28;;;11.60;99.90;;;;;;4168436;28;20076;-84
2023/03/24 00:12:50;;;;;;;8.23;2.63;;;11.60;99.90;;;;;;4225104;27;20048;-84
2023/03/24 00:14:53;;;;;;;9.02;3.40;;;11.60;99.90;;;;;;4234909;27;20046;-83
2023/03/24 00:16:57;;;;;;;6.43;2.63;;;11.50;99.90;;;;;;4231167;27;20040;-84
2023/03/24 00:18:58;;;;;;;6.90;2.60;;;11.50;99.90;;;;;;4184443;28;20094;-84
2023/03/24 00:20:59;;;;;;;9.75;3.05;;;11.50;99.90;;;;;;4189790;28;20045;-85
2023/03/24 00:23:01;;;;;;;11.93;2.85;;;11.50;99.90;;;;;;4209377;28;20249;-85
2023/03/24 00:25:03;;;;;;;10.70;2.53;;;11.60;99.90;;;;;;4218854;28;20115;-84
2023/03/24 00:27:04;;;;;;;4.25;2.60;;;11.40;99.90;;;;;;4218599;28;20620;-84
2023/03/24 00:29:09;;;;;;;7.53;2.80;;;11.40;99.90;;;;;;4208088;28;20045;-85
2023/03/24 00:31:13;;;;;;;6.75;3.25;;;11.40;99.90;;;;;;4224238;28;20028;-84
2023/03/24 00:33:14;;;;;;;12.10;3.80;;;11.60;99.90;;;;;;4216382;28;20126;-84
2023/03/24 00:35:16;;;;;;;4.70;2.45;;;11.40;99.90;;;;;;4236273;27;20376;-85
2023/03/24 00:37:17;;;;;;;11.20;3.15;;;11.50;99.90;;;;;;4201601;28;20091;-85
2023/03/24 00:39:19;;;;;;;7.65;2.90;;;11.40;99.90;;;;;;4235797;27;20039;-84
2023/03/24 00:41:20;;;;;;;7.82;2.78;;;11.40;99.90;;;;;;4202231;28;20111;-84
2023/03/24 00:43:21;;;;;;;5.63;2.30;;;11.40;99.90;;;;;;4219297;28;20432;-84
2023/03/24 00:45:24;;;;;;;12.57;3.28;;;11.60;99.90;;;;;;4235219;27;20047;-83
2023/03/24 00:47:25;;;;;;;6.50;2.20;;;11.40;99.90;;;;;;4229698;27;20094;-85
2023/03/24 00:49:47;;;;;;;6.70;3.42;;;11.50;99.90;;;;;;4217202;28;20048;-85
2023/03/24 00:51:47;;;;;;;7.00;2.83;;;11.50;99.90;;;;;;4216244;27;20496;-84
2023/03/24 00:53:48;;;;;;;5.20;2.58;;;11.30;99.90;;;;;;4239405;27;20050;-84
2023/03/24 00:55:51;;;;;;;9.35;2.75;;;11.40;99.90;;;;;;4212935;28;20048;-85
2023/03/24 00:57:53;;;;;;;6.57;2.80;;;11.30;99.90;;;;;;4221614;28;20090;-85
2023/03/24 00:59:54;;;;;;;7.65;2.70;;;11.30;99.90;;;;;;4238941;27;20102;-84
2023/03/24 01:01:56;;;;;;;4.38;2.22;;;11.30;99.90;;;;;;4214537;28;20138;-85
2023/03/24 01:03:58;;;;;;;7.13;3.25;;;11.40;99.90;;;;;;4204373;28;20044;-84
2023/03/24 01:06:01;;;;;;;8.43;2.75;;;11.60;99.90;;;;;;4215922;28;20055;-84
2023/03/24 01:08:03;;;;;;;4.85;2.95;;;11.50;99.90;;;;;;4205369;28;20405;-84
2023/03/24 01:10:04;;;;;;;6.78;2.97;;;11.40;99.90;;;;;;4203295;28;20052;-84
2023/03/24 01:12:05;;;;;;;6.70;2.97;;;11.50;99.90;;;;;;4235937;27;20051;-84
2023/03/24 01:14:07;;;;;;;6.55;3.13;;;11.30;99.90;;;;;;4217617;28;20473;-85
2023/03/24 01:16:08;;;;;;;4.38;2.17;;;11.30;99.90;;;;;;4227005;27;20028;-84
2023/03/24 01:18:11;;;;;;;7.38;2.63;;;11.40;99.90;;;;;;4230722;27;20536;-84
2023/03/24 01:20:13;;;;;;;6.40;2.80;;;11.40;99.90;;;;;;4235725;27;20126;-84
2023/03/24 01:22:15;;;;;;;4.90;2.75;;;11.30;99.90;;;;;;4219122;28;20534;-84
2023/03/24 01:24:17;;;;;;;4.30;2.00;;;11.30;99.90;;;;;;4239007;27;20043;-85
2023/03/24 01:26:17;;;;;;;5.53;2.88;;;11.50;99.90;;;;;;4236751;27;20232;-84
2023/03/24 01:28:22;;;;;;;7.45;2.85;;;11.30;99.90;;;;;;4237745;27;20070;-84
2023/03/24 01:30:25;;;;;;;8.32;2.70;;;11.30;99.90;;;;;;4234188;27;20052;-84
2023/03/24 01:32:28;;;;;;;6.65;2.40;;;11.50;99.90;;;;;;4211592;28;20105;-85
2023/03/24 01:34:29;;;;;;;5.80;2.47;;;11.50;99.90;;;;;;4220678;28;20048;-84
2023/03/24 01:36:29;;;;;;;7.60;2.40;;;11.30;99.90;;;;;;4219970;28;20047;-84
2023/03/24 01:38:31;;;;;;;5.13;2.80;;;11.30;99.90;;;;;;4240866;28;20043;-84
2023/03/24 01:40:33;;;;;;;5.38;2.75;;;11.20;99.90;;;;;;4236510;28;20042;-84
2023/03/24 01:42:33;;;;;;;5.40;2.28;;;11.40;99.90;;;;;;4229198;28;20815;-84
2023/03/24 01:44:36;;;;;;;5.63;2.20;;;11.30;99.90;;;;;;4229269;28;20067;-84
2023/03/24 01:46:37;;;;;;;5.55;2.15;;;11.30;99.90;;;;;;4231000;28;20035;-85
2023/03/24 01:48:52;;;;;;;6.70;2.20;;;11.40;99.90;;;;;;4225109;28;20050;-85
2023/03/24 01:51:02;;;;;;;5.35;2.25;;;11.60;99.90;;;;;;4230280;28;20502;-84
2023/03/24 01:53:03;;;;;;;4.35;1.92;;;11.40;99.90;;;;;;4212601;28;20119;-85
2023/03/24 01:55:17;;;;;;;4.78;2.30;;;11.40;99.90;;;;;;4227392;28;20047;-84
2023/03/24 01:57:27;;;;;;;3.80;2.00;;;11.30;99.90;;;;;;4213463;28;20453;-84
2023/03/24 01:59:32;;;;;;;3.92;1.70;;;11.40;99.90;;;;;;4230316;28;20506;-85
2023/03/24 02:01:34;;;;;;;6.28;2.42;;;11.50;99.90;;;;;;4206661;28;20048;-84
2023/03/24 02:03:37;;;;;;;5.35;2.40;;;11.40;99.90;;;;;;4226645;28;20047;-85
2023/03/24 02:05:39;;;;;;;5.32;2.47;;;11.30;99.90;;;;;;4212737;28;20467;-82
2023/03/24 02:08:09;;;;;;;6.72;2.55;;;11.30;99.90;;;;;;4214261;28;20046;-84
2023/03/24 02:10:13;;;;;;;3.30;1.75;;;11.50;99.90;;;;;;4239610;28;20039;-85
2023/03/24 02:12:13;;;;;;;4.30;2.22;;;11.40;99.90;;;;;;4202309;28;20183;-85
2023/03/24 02:14:15;;;;;;;3.88;2.05;;;11.40;99.90;;;;;;4183415;28;20554;-84
2023/03/24 02:16:36;;;;;;;5.32;2.35;;;11.30;99.90;;;;;;4168037;28;20108;-85
2023/03/24 02:19:25;;;;;;;6.32;2.35;;;11.40;99.90;;;;;;4187651;28;20037;-85
2023/03/24 02:21:44;;;;;;;3.05;2.13;;;12.20;99.90;;;;;;4181988;28;20041;-84
2023/03/24 02:24:10;;;;;;;;;;;11.30;99.90;;;;;;4199950;28;20040;-84
2023/03/24 02:26:38;;;;;;;4.35;1.85;;;11.30;99.90;;;;;;4180816;28;20408;-85
2023/03/24 02:29:05;;;;;;;3.85;1.67;;;11.30;99.90;;;;;;4173434;28;20540;-84
2023/03/24 02:31:24;;;;;;;7.68;2.20;;;11.30;99.90;;;;;;4177158;28;20657;-84
2023/03/24 02:33:27;;;;;;;;;;;11.50;99.90;;;;;;4192590;28;20040;-85
2023/03/24 02:35:44;;;;;;;4.05;1.95;;;11.40;99.90;;;;;;4187734;28;20019;-85
2023/03/24 02:38:03;;;;;;;6.05;2.95;;;11.40;99.90;;;;;;4197624;28;20390;-84
2023/03/24 02:40:21;;;;;;;4.40;1.98;;;11.30;99.90;;;;;;4182415;28;20464;-84
2023/03/24 02:42:47;;;;;;;4.93;2.42;;;11.30;99.90;;;;;;4168845;28;20471;-84
2023/03/24 02:44:57;;;;;;;6.88;2.35;;;11.40;99.90;;;;;;4186827;28;20477;-84
2023/03/24 02:47:27;;;;;;;4.50;2.13;;;11.40;99.90;;;;;;4189497;28;20404;-83
2023/03/24 02:49:49;;;;;;;4.57;2.45;;;11.50;99.90;;;;;;4172549;28;20056;-84
2023/03/24 02:52:21;;;;;;;5.85;2.78;;;11.40;99.90;;;;;;4194825;28;20090;-84
2023/03/24 02:54:55;;;;;;;6.32;2.40;;;11.30;99.90;;;;;;4197757;28;20037;-84
2023/03/24 02:57:20;;;;;;;3.65;2.28;;;11.30;99.90;;;;;;4187898;28;20374;-84
2023/03/24 02:59:52;;;;;;;4.20;2.10;;;11.40;99.90;;;;;;4194912;28;20044;-84
2023/03/24 03:02:16;;;;;;;4.53;2.00;;;11.40;99.90;;;;;;4192673;28;20053;-84
2023/03/24 03:04:24;;;;;;;2.90;1.95;;;11.40;99.90;;;;;;4170270;28;20059;-84
2023/03/24 03:06:35;;;;;;;3.88;2.50;;;11.40;99.90;;;;;;4181845;28;20088;-84
2023/03/24 03:08:37;;;;;;;4.68;2.25;;;11.50;99.90;;;;;;4183934;28;20044;-84
2023/03/24 03:10:42;;;;;;;5.28;2.22;;;11.40;99.90;;;;;;4185619;28;20049;-84
2023/03/24 03:12:47;;;;;;;5.60;2.95;;;11.50;99.90;;;;;;4194360;28;20061;-83
2023/03/24 03:14:53;;;;;;;5.82;2.63;;;11.50;99.90;;;;;;4196702;28;20098;-84
2023/03/24 03:17:05;;;;;;;5.10;2.30;;;11.50;99.90;;;;;;4187847;28;20127;-85
2023/03/24 03:19:22;;;;;;;6.95;2.72;;;11.50;99.90;;;;;;4192188;28;20123;-84
2023/03/24 03:21:25;;;;;;;4.28;2.00;;;11.40;99.90;;;;;;4191540;28;20056;-84
2023/03/24 03:23:34;;;;;;;4.55;2.30;;;11.50;99.90;;;;;;4188416;28;20060;-84
2023/03/24 03:25:41;;;;;;;4.13;1.73;;;11.70;99.90;;;;;;4190284;28;20386;-84
2023/03/24 03:27:45;;;;;;;3.25;2.05;;;12.10;99.90;;;;;;4187934;28;20072;-83
2023/03/24 03:29:53;;;;;;;4.18;2.13;;;11.40;99.90;;;;;;4197095;28;20049;-84
2023/03/24 03:32:06;;;;;;;4.95;2.67;;;11.70;99.90;;;;;;4181194;28;20410;-84
2023/03/24 03:34:27;;;;;;;4.80;2.60;;;11.60;99.90;;;;;;4197205;28;20429;-84
2023/03/24 03:36:34;;;;;;;2.47;1.52;;;11.60;99.90;;;;;;4194579;28;20060;-84
2023/03/24 03:38:48;;;;;;;3.67;1.50;;;11.60;99.90;;;;;;4188251;28;20048;-84
2023/03/24 03:40:53;;;;;;;3.20;1.80;;;11.60;99.90;;;;;;4193496;28;20059;-84
2023/03/24 03:42:54;;;;;;;2.53;1.50;;;10.60;99.90;;;;;;4191130;28;20049;-84
2023/03/24 03:44:55;;;;;;;3.38;1.13;;;;;;;;;;4178747;28;20053;-84
2023/03/24 03:46:56;;;;;;;14.75;1.83;;;;;;;;;;4195492;28;24602;-84
2023/03/24 03:48:57;;;;;;;2.63;1.38;;;;;;;;;;4192982;28;20036;-84
2023/03/24 03:50:58;;;;;;;1.48;1.00;;;11.40;99.90;;;;;;4185575;28;20046;-84
2023/03/24 03:53:00;;;;;;;1.35;0.98;;;11.20;99.90;;;;;;4193226;28;20076;-84
2023/03/24 03:55:03;;;;;;;3.53;1.25;;;11.20;99.90;;;;;;4176528;28;20045;-84
2023/03/24 03:57:04;;;;;;;2.97;1.52;;;;;;;;;;4191986;28;20053;-84
2023/03/24 03:59:06;;;;;;;3.17;1.33;;;11.60;99.90;;;;;;4174065;28;20405;-84
2023/03/24 04:01:06;;;;;;;3.92;1.27;;;11.20;99.90;;;;;;4191631;28;20044;-84
2023/03/24 04:03:36;;;;;;;5.78;1.25;;;11.00;99.90;;;;;;4191384;28;20119;-84
2023/03/24 04:05:48;;;;;;;3.40;1.00;;;11.10;99.90;;;;;;4196671;28;20130;-84
2023/03/24 04:08:02;;;;;;;5.28;1.42;;;11.10;99.90;;;;;;4186856;28;20106;-84
2023/03/24 04:10:20;;;;;;;2.83;1.27;;;10.90;99.90;;;;;;4195542;28;20056;-84
2023/03/24 04:12:31;;;;;;;5.07;1.27;;;11.00;99.90;;;;;;4212421;27;20063;-83
2023/03/24 04:14:48;;;;;;;3.08;0.98;;;11.20;99.90;;;;;;4202696;28;20519;-84
2023/03/24 04:17:35;;;;;;;6.18;1.17;;;10.70;99.90;;;;;;4219903;28;20047;-84
2023/03/24 04:20:09;;;;;;;7.85;1.20;;;10.70;99.90;;;;;;4205123;28;20515;-84
2023/03/24 04:22:30;;;;;;;7.15;1.48;;;11.00;99.90;;;;;;4229139;27;20642;-84
2023/03/24 04:25:14;;;;;;;2.40;0.82;;;10.60;99.90;;;;;;4239339;27;20707;-84
2023/03/24 04:27:37;;;;;;;6.93;1.20;;;10.60;99.90;;;;;;4186579;28;20072;-84
2023/03/24 04:29:52;;;;;;;5.00;0.80;;;10.60;99.90;;;;;;4222378;28;20044;-84
2023/03/24 04:32:03;;;;;;;8.32;1.55;;;10.70;99.90;;;;;;4222305;27;20048;-84
2023/03/24 04:34:21;;;;;;;8.50;1.10;;;10.60;99.90;;;;;;4237596;27;20040;-83
2023/03/24 04:36:49;;;;;;;3.30;1.00;;;10.40;99.90;;;;;;4225941;27;20047;-84
2023/03/24 04:38:56;;;;;;;4.47;0.98;;;10.50;99.90;;;;;;4236105;27;20131;-85
2023/03/24 04:40:57;;;;;;;4.40;0.80;;;10.30;99.90;;;;;;4243385;27;20376;-85
2023/03/24 04:43:02;;;;;;;6.55;1.13;;;10.50;99.90;;;;;;4233049;27;20043;-85
2023/03/24 04:45:05;;;;;;;4.90;0.80;;;10.40;99.90;;;;;;4211351;28;20059;-85
2023/03/24 04:47:09;;;;;;;5.38;0.73;;;8.20;99.90;;;;;;4217698;28;20060;-84
2023/03/24 04:49:10;;;;;;;9.90;1.80;;;10.30;99.90;;;;;;4235808;27;20186;-85
2023/03/24 04:51:11;;;;;;;3.13;0.75;;;10.30;99.90;;;;;;4234518;28;20516;-85
2023/03/24 04:53:12;;;;;;;4.25;0.90;;;10.00;99.90;;;;;;4216711;28;20051;-85
2023/03/24 04:55:36;;;;;;;9.10;1.60;;;10.00;99.90;;;;;;4233307;27;20050;-84
2023/03/24 04:57:37;;;;;;;6.97;1.60;;;10.10;99.90;;;;;;4213927;28;20052;-84
2023/03/24 04:59:39;;;;;;;9.50;2.33;;;10.10;99.90;;;;;;4218209;28;20500;-84
2023/03/24 05:01:48;;;;;;;6.97;0.98;;;10.30;99.90;;;;;;4221008;28;20090;-84
2023/03/24 05:03:50;;;;;;;12.85;2.28;;;9.80;99.90;;;;;;4215327;28;20425;-84
2023/03/24 05:05:52;;;;;;;4.43;0.85;;;10.00;99.90;;;;;;4234108;27;20120;-85
2023/03/24 05:07:55;;;;;;;4.60;0.80;;;10.70;99.90;;;;;;4202191;28;20074;-85
2023/03/24 05:09:56;;;;;;;4.32;1.00;;;10.10;99.90;;;;;;4213842;28;20048;-84
2023/03/24 05:11:57;;;;;;;11.77;1.95;;;9.70;99.90;;;;;;4224855;28;20069;-84
2023/03/24 05:13:58;;;;;;;7.25;1.00;;;9.60;99.90;;;;;;4226779;28;20028;-84
2023/03/24 05:16:00;;;;;;;5.53;1.55;;;9.60;99.90;;;;;;4231243;28;20057;-84
2023/03/24 05:18:01;;;;;;;6.28;1.48;;;10.00;99.90;;;;;;4201791;28;20107;-84
2023/03/24 05:20:05;;;;;;;6.63;1.23;;;9.50;99.90;;;;;;4213279;28;20048;-84
2023/03/24 05:22:06;;;;;;;10.77;1.38;;;9.10;99.90;;;;;;4218476;28;20044;-84
2023/03/24 05:24:07;;;;;;;4.00;0.88;;;9.70;99.90;;;;;;4219017;28;20470;-84
2023/03/24 05:26:08;;;;;;;12.38;1.55;;;9.50;99.90;;;;;;4233840;28;20051;-84
2023/03/24 05:28:09;;;;;;;8.30;1.60;;;9.70;99.90;;;;;;4251300;27;20039;-84
2023/03/24 05:30:11;;;;;;;6.20;1.20;;;9.70;99.90;;;;;;4230484;28;20070;-83
2023/03/24 05:32:12;;;;;;;11.70;2.03;;;;;;;;;;4212737;28;20040;-84
2023/03/24 05:34:13;;;;;;;9.55;1.40;;;;;;;;;;4233003;28;20048;-84
2023/03/24 05:36:15;;;;;;;6.97;1.30;;;;;;;;;;4225872;28;20099;-84
2023/03/24 05:38:16;;;;;;;12.02;1.63;;;;;;;;;;4233001;28;20103;-84
2023/03/24 05:40:17;;;;;;;6.35;1.27;;;;;;;;;;4233066;28;20082;-84
2023/03/24 05:42:18;;;;;;;12.80;1.60;;;;;;;;;;4217062;28;20065;-84
2023/03/24 05:44:19;;;;;;;10.05;1.95;;;;;;;;;;4232516;28;20274;-84
2023/03/24 05:46:20;;;;;;;9.82;1.52;;;;;;;;;;4218465;28;20108;-85
2023/03/24 05:48:21;;;;;;;11.77;1.80;;;;;;;;;;4240062;28;20126;-84
2023/03/24 05:50:23;;;;;;;10.90;2.22;;;;;;;;;;4221954;28;20080;-84
2023/03/24 05:52:24;;;;;;;7.00;1.88;;;;;;;;;;4234375;27;20167;-84
2023/03/24 05:54:25;;;;;;;7.95;2.03;;;;;;;;;;4251420;27;20039;-84
2023/03/24 05:56:27;;;;;;;4.03;1.20;;;;;;;;;;4227189;28;20132;-84
2023/03/24 05:58:28;;;;;;;7.18;2.05;;;;;;;;;;4243513;27;20122;-84
2023/03/24 06:00:30;;;;;;;4.88;1.33;;;9.50;99.90;;;;;;4227388;28;20055;-84
2023/03/24 06:02:32;;;;;;;7.78;1.98;;;;;;;;;;4215619;28;20096;-85
2023/03/24 06:04:34;;;;;;;6.07;1.77;;;;;;;;;;4238189;27;20514;-84
2023/03/24 06:06:37;;;;;;;8.82;1.58;;;;;;;;;;4222102;28;20028;-84
2023/03/24 06:08:38;;;;;;;11.23;1.77;;;;;;;;;;4230366;28;20144;-84
2023/03/24 06:10:40;;;;;;;12.98;2.70;;;10.00;99.90;;;;;;4225583;28;20582;-85
2023/03/24 06:12:41;;;;;;;6.60;1.30;;;9.90;99.90;;;;;;4227155;27;20055;-84
2023/03/24 06:14:44;;;;;;;6.55;1.20;;;10.30;99.90;;;;;;4232054;28;20054;-84
2023/03/24 06:16:45;;;;;;;16.40;2.95;;;9.70;99.90;;;;;;4220306;28;20122;-85
2023/03/24 06:18:51;;;;;;;8.85;2.13;;;9.90;99.90;;;;;;4233376;28;20043;-84
2023/03/24 06:20:55;;;;;;;6.95;2.35;;;9.70;99.90;;;;;;4211222;28;20078;-85
2023/03/24 06:22:58;;;;;;;12.60;1.98;;;9.80;99.90;;;;;;4240785;27;20109;-84
2023/03/24 06:24:59;;;;;;;11.60;1.95;;;9.70;99.90;;;;;;4245347;27;20050;-84
2023/03/24 06:27:01;;;;;;;15.20;2.08;;;9.70;99.90;;;;;;4221732;28;20044;-84
2023/03/24 06:29:01;;;;;;;11.02;2.60;;;9.90;99.90;;;;;;4196792;28;20041;-84
2023/03/24 06:31:04;;;;;;;31.80;3.08;;;10.00;99.90;;;;;;4222613;28;20128;-85
2023/03/24 06:33:05;;;;;;;12.43;2.10;;;10.00;99.90;;;;;;4229148;28;20050;-84
2023/03/24 06:35:06;;;;;;;10.23;1.80;;;10.60;99.90;;;;;;4238144;27;20403;-84
2023/03/24 06:37:07;;;;;;;8.55;1.77;;;10.20;99.90;;;;;;4211583;28;20052;-84
2023/03/24 06:39:09;;;;;;;8.07;1.85;;;10.40;99.90;;;;;;4237341;27;20044;-85
2023/03/24 06:41:10;;;;;;;8.73;1.40;;;10.30;99.90;;;;;;4187491;28;20056;-84
2023/03/24 06:43:11;;;;;;;10.10;1.50;;;10.00;99.90;;;;;;4216765;28;20040;-84
2023/03/24 06:45:12;;;;;;;9.38;1.70;;;10.20;99.90;;;;;;4222202;28;20050;-84
2023/03/24 06:47:12;;;;;;;7.07;1.30;;;10.00;99.90;;;;;;4243543;27;20111;-84
2023/03/24 06:49:13;;;;;;;8.75;1.42;;;9.80;99.90;;;;;;4237417;27;20043;-84
2023/03/24 06:51:14;;;;;;;9.95;1.77;;;10.00;99.90;;;;;;4237822;27;20054;-85
2023/03/24 06:53:16;;;;;;;4.38;1.40;;;10.00;99.90;;;;;;4233501;28;20395;-84
2023/03/24 06:55:17;;;;;;;13.73;2.30;;;10.00;99.90;;;;;;4216434;28;20613;-85
2023/03/24 06:57:21;;;;;;;12.18;1.63;;;10.00;99.90;;;;;;4215694;28;20105;-85
2023/03/24 06:59:23;;;;;;;5.28;1.75;;;10.20;99.90;;;;;;4228046;28;20122;-84
2023/03/24 07:01:24;;;;;;;15.82;2.28;;;10.30;99.90;;;;;;4200669;28;20056;-84
2023/03/24 07:03:25;;;;;;;9.93;1.77;;;10.00;99.90;;;;;;4247535;27;20051;-84
2023/03/24 07:05:28;;;;;;;8.00;1.65;;;10.00;99.90;;;;;;4200218;28;20044;-84
2023/03/24 07:07:28;;;;;;;7.00;1.67;;;9.70;99.90;;;;;;4249759;27;20107;-84
2023/03/24 07:09:29;;;;;;;11.45;2.10;;;10.70;99.90;;;;;;4234456;27;20040;-84
2023/03/24 07:11:31;;;;;;;9.30;1.50;;;9.80;99.90;;;;;;4214178;28;20123;-84
2023/03/24 07:13:32;;;;;;;6.22;2.08;;;10.00;99.90;;;;;;4199089;28;20501;-84
2023/03/24 07:15:34;;;;;;;11.57;2.83;;;9.90;99.90;;;;;;4240738;27;20072;-84
2023/03/24 07:17:35;;;;;;;10.95;1.73;;;9.80;99.90;;;;;;4208280;28;20044;-84
2023/03/24 07:19:36;;;;;;;11.88;1.58;;;10.00;99.90;;;;;;4250118;27;20042;-84
2023/03/24 07:21:36;;;;;;;13.18;2.40;;;9.80;99.90;;;;;;4198129;28;20044;-84
2023/03/24 07:23:37;;;;;;;22.30;2.03;;;10.00;99.90;;;;;;4231644;28;20047;-84
2023/03/24 07:25:41;;;;;;;14.25;2.35;;;10.10;99.90;;;;;;4215174;28;20040;-84
2023/03/24 07:27:41;;;;;;;12.25;1.83;;;9.90;99.90;;;;;;4199655;28;20500;-84
2023/03/24 07:29:42;;;;;;;12.40;1.98;;;10.00;99.90;;;;;;4249887;27;20047;-84
2023/03/24 07:31:44;;;;;;;13.13;2.55;;;10.00;99.90;;;;;;4215925;28;20572;-83
2023/03/24 07:33:45;;;;;;;10.40;1.70;;;10.00;99.90;;;;;;4241810;27;20504;-83
2023/03/24 07:35:45;;;;;;;14.82;1.90;;;9.60;99.90;;;;;;4232037;28;20050;-84
2023/03/24 07:37:46;;;;;;;14.10;2.15;;;9.90;99.90;;;;;;4250564;27;20119;-84
2023/03/24 07:39:48;;;;;;;13.45;3.35;;;9.90;99.90;;;;;;4214174;28;20054;-84
2023/03/24 07:41:49;;;;;;;11.75;2.42;;;10.00;99.90;;;;;;4248631;27;20043;-83
2023/03/24 07:43:50;;;;;;;14.18;1.83;;;9.90;99.90;;;;;;4213766;28;20055;-84
2023/03/24 07:45:50;;;;;;;10.07;2.15;;;10.10;99.90;;;;;;4211290;28;20072;-84
2023/03/24 07:47:52;;;;;;;18.67;2.70;;;10.10;99.90;;;;;;4234386;27;20415;-84
2023/03/24 07:49:53;;;;;;;10.20;1.75;;;10.00;99.90;;;;;;4213048;28;20055;-84
2023/03/24 07:51:54;;;;;;;17.13;2.47;;;11.00;99.90;;;;;;4202723;28;20048;-83
2023/03/24 07:53:55;;;;;;;12.77;2.75;;;10.20;99.90;;;;;;4239867;27;20123;-84
2023/03/24 07:55:57;;;;;;;15.45;2.72;;;10.30;99.90;;;;;;4228970;28;20067;-84
2023/03/24 07:57:59;;;;;;;15.50;2.20;;;10.20;99.90;;;;;;4217206;28;20048;-84
2023/03/24 08:00:13;;;;;;;17.38;3.35;;;10.30;99.90;;;;;;4227916;28;20071;-87
2023/03/24 08:02:18;;;;;;;21.85;2.22;;;10.10;99.90;;;;;;4232220;28;20111;-83
2023/03/24 08:04:19;;;;;;;12.88;2.03;;;10.30;99.90;;;;;;4238205;27;20521;-84
2023/03/24 08:06:21;;;;;;;11.27;2.80;;;10.20;99.90;;;;;;4243664;27;20055;-83
2023/03/24 08:08:22;;;;;;;11.82;2.15;;;10.30;99.90;;;;;;4228221;28;20156;-82
2023/03/24 08:10:29;;;;;;;18.85;1.75;;;10.50;99.90;;;;;;4238749;27;20519;-83
2023/03/24 08:12:30;;;;;;;17.20;2.00;;;10.30;99.90;;;;;;4241934;27;20785;-84
2023/03/24 08:14:31;;;;;;;10.23;2.08;;;10.90;99.90;;;;;;4214844;28;20047;-83
2023/03/24 08:16:32;;;;;;;13.05;3.10;;;10.50;99.90;;;;;;4231350;27;20049;-83
2023/03/24 08:18:33;;;;;;;9.38;2.25;;;10.40;99.90;;;;;;4223283;28;20109;-84
2023/03/24 08:20:35;;;;;;;13.85;2.20;;;8.90;99.90;;;;;;4240774;27;20047;-84
2023/03/24 08:22:38;;;;;;;11.30;1.60;;;10.60;99.90;;;;;;4223996;28;20562;-84
2023/03/24 08:24:39;;;;;;;14.50;2.28;;;10.70;99.90;;;;;;4224360;28;20059;-86
2023/03/24 08:26:41;;;;;;;13.15;1.70;;;10.60;99.90;;;;;;4229754;28;20044;-85
2023/03/24 08:28:42;;;;;;;9.25;2.47;;;11.20;99.90;;;;;;4242740;27;20047;-85
2023/03/24 08:30:45;;;;;;;16.77;2.80;;;11.30;99.90;;;;;;4234098;28;20634;-85
2023/03/24 08:32:50;;;;;;;15.60;2.85;;;11.10;99.90;;;;;;4226023;28;20536;-85
2023/03/24 08:34:53;;;;;;;16.25;2.67;;;11.40;99.90;;;;;;4240781;27;20079;-85
2023/03/24 08:36:54;;;;;;;14.18;2.08;;;11.10;99.90;;;;;;4234159;28;20043;-85
2023/03/24 08:38:55;;;;;;;6.75;1.60;;;11.20;99.90;;;;;;4227314;28;20162;-84
2023/03/24 08:41:05;;;;;;;18.38;2.88;;;11.10;99.90;;;;;;4240065;27;20070;-83
2023/03/24 08:43:08;;;;;;;8.65;1.88;;;11.40;99.90;;;;;;4233275;27;20141;-84
2023/03/24 08:45:11;;;;;;;14.20;2.83;;;11.90;99.90;;;;;;4230717;28;20039;-85
2023/03/24 08:47:12;;;;;;;16.98;2.75;;;11.70;99.90;;;;;;4213688;28;20359;-85
2023/03/24 08:49:13;;;;;;;17.00;2.42;;;11.70;99.90;;;;;;4230131;28;20465;-86
2023/03/24 08:51:15;;;;;;;18.42;2.35;;;11.60;99.90;;;;;;4248782;27;20055;-86
2023/03/24 08:53:16;;;;;;;22.27;3.10;;;11.60;99.90;;;;;;4201444;28;20112;-85
2023/03/24 08:55:18;;;;;;;6.53;1.73;;;11.90;99.90;;;;;;4210972;28;20424;-85
2023/03/24 08:57:20;;;;;;;24.25;4.38;;;12.30;99.90;;;;;;4235856;27;20043;-85
2023/03/24 08:59:21;;;;;;;20.33;3.67;;;12.50;99.90;;;;;;4212533;28;20441;-87
2023/03/24 09:01:23;;;;;;;11.95;2.05;;;12.30;99.90;;;;;;4213915;28;20047;-86
2023/03/24 09:03:25;;;;;;;10.13;1.40;;;12.20;99.90;;;;;;4200379;28;20048;-85
2023/03/24 09:05:26;;;;;;;15.48;3.50;;;12.50;99.90;;;;;;4213443;28;20119;-85
2023/03/24 09:07:27;;;;;;;16.00;2.03;;;13.20;99.90;;;;;;4235306;28;20048;-85
2023/03/24 09:09:29;;;;;;;14.23;2.08;;;13.20;99.90;;;;;;4238222;27;20058;-85
2023/03/24 09:11:30;;;;;;;12.18;2.20;;;12.60;99.90;;;;;;4210589;28;20071;-85
2023/03/24 09:13:31;;;;;;;21.52;3.15;;;12.30;99.90;;;;;;4217777;28;20067;-85
2023/03/24 09:15:32;;;;;;;13.13;1.98;;;12.30;99.90;;;;;;4213835;28;20055;-86
2023/03/24 09:17:34;;;;;;;15.02;1.88;;;12.30;99.90;;;;;;4230819;27;20410;-84
2023/03/24 09:19:36;;;;;;;9.65;2.03;;;13.10;99.90;;;;;;4250460;27;20443;-84
2023/03/24 09:21:37;;;;;;;15.75;2.88;;;13.40;99.90;;;;;;4214366;28;20399;-86
2023/03/24 09:23:39;;;;;;;28.33;2.30;;;13.50;99.90;;;;;;4199085;28;20040;-85
2023/03/24 09:25:40;;;;;;;10.13;2.40;;;13.50;99.90;;;;;;4231480;28;20059;-87
2023/03/24 09:27:44;;;;;;;15.32;2.63;;;13.30;99.90;;;;;;4198718;28;20135;-86
2023/03/24 09:29:45;;;;;;;8.95;1.77;;;13.60;99.90;;;;;;4208162;28;20123;-85
2023/03/24 09:31:45;;;;;;;7.20;2.55;;;13.10;99.90;;;;;;4247700;27;20074;-85
2023/03/24 09:33:46;;;;;;;15.95;2.70;;;13.20;99.90;;;;;;4194654;28;20613;-85
2023/03/24 09:35:53;;;;;;;12.48;2.13;;;12.90;99.90;;;;;;4213567;28;20689;-84
2023/03/24 09:37:55;;;;;;;15.35;2.35;;;12.60;99.90;;;;;;4227316;28;20396;-85
2023/03/24 09:39:58;;;;;;;12.35;2.60;;;;;;;;;;4196438;28;20044;-85
2023/03/24 09:41:59;;;;;;;10.85;1.73;;;;;;;;;;4213243;28;20059;-85
2023/03/24 09:44:05;;;;;;;7.78;1.45;;;;;;;;;;4226795;28;20574;-85
2023/03/24 09:46:14;;;;;;;7.20;1.08;;;13.50;99.90;;;;;;4211907;28;20040;-86
2023/03/24 09:48:41;;;;;;;11.18;2.83;;;13.60;99.90;;;;;;4207915;28;20461;-85
2023/03/24 09:51:01;;;;;;;13.48;2.53;;;14.20;99.90;;;;;;4221717;28;20056;-85
2023/03/24 09:53:42;;;;;;;15.65;2.20;;;13.90;99.90;;;;;;4201069;28;20055;-85
2023/03/24 09:55:44;;;;;;;10.95;2.20;;;13.10;99.90;;;;;;4145804;28;20065;-84
2023/03/24 09:57:46;;;;;;;9.52;2.10;;;;;;;;;;4192840;28;20059;-84
2023/03/24 09:59:47;;;;;;;9.25;1.63;;;;;;;;;;4229992;28;20039;-85
2023/03/24 10:01:49;;;;;;;8.15;1.52;;;;;;;;;;4197830;28;20051;-85
2023/03/24 10:03:50;;;;;;;8.68;1.77;;;13.70;99.90;;;;;;4229589;28;20043;-84
2023/03/24 10:06:03;;;;;;;15.77;2.17;;;14.00;99.90;;;;;;4233858;28;20093;-84
2023/03/24 10:08:24;;;;;;;7.63;1.30;;;14.60;99.90;;;;;;4221603;28;20049;-84
2023/03/24 10:10:56;;;;;;;11.88;2.03;;;14.40;99.90;;;;;;4232896;28;20035;-84
2023/03/24 10:13:03;;;;;;;9.02;1.75;;;;;;;;;;4234735;28;20083;-84
2023/03/24 10:15:10;;;;;;;12.65;2.55;;;14.60;99.90;;;;;;4202281;28;20057;-84
2023/03/24 10:17:35;;;;;;;13.32;2.72;;;14.50;99.90;;;;;;4220472;28;20040;-85
2023/03/24 10:20:11;;;;;;;11.77;1.98;;;14.70;99.90;;;;;;4247324;27;20067;-86
2023/03/24 10:22:36;;;;;;;12.32;1.98;;;14.30;99.90;;;;;;4256954;27;20036;-84
2023/03/24 10:24:52;;;;;;;18.00;1.90;;;14.50;99.90;;;;;;4216902;28;20033;-84
2023/03/24 10:27:01;;;;;;;8.77;2.42;;;14.30;99.90;;;;;;4244246;27;20063;-84
2023/03/24 10:29:27;;;;;;;13.65;1.50;;;14.10;99.90;;;;;;4221515;28;20070;-85
2023/03/24 10:31:31;;;;;;;8.25;2.15;;;13.50;99.90;;;;;;4232407;28;20040;-85
2023/03/24 10:33:39;;;;;;;10.00;1.63;;;14.00;99.90;;;;;;4230935;28;20041;-85
2023/03/24 10:36:04;;;;;;;15.65;2.45;;;13.90;99.90;;;;;;4200902;28;20107;-85
2023/03/24 10:38:17;;;;;;;9.98;1.42;;;14.10;99.90;;;;;;4247650;27;20028;-86
2023/03/24 10:40:26;;;;;;;16.05;2.70;;;14.50;99.90;;;;;;4242510;27;20096;-85
2023/03/24 10:42:32;;;;;;;9.05;1.35;;;14.50;99.90;;;;;;4237059;28;20040;-85
2023/03/24 10:44:33;;;;;;;11.70;2.63;;;14.60;99.90;;;;;;4242149;27;20052;-85
2023/03/24 10:46:37;;;;;;;15.10;1.83;;;14.90;99.90;;;;;;4237363;28;20020;-85
2023/03/24 10:48:46;;;;;;;11.75;2.13;;;14.60;99.90;;;;;;4254069;27;20071;-84
2023/03/24 10:50:47;;;;;;;9.50;2.00;;;14.00;99.90;;;;;;4270523;27;20047;-85
2023/03/24 10:52:49;;;;;;;13.70;3.67;;;14.20;99.90;;;;;;4260716;27;20038;-85
2023/03/24 10:54:57;;;;;;;12.05;2.53;;;13.80;99.90;;;;;;4246614;27;20041;-85
2023/03/24 10:56:59;;;;;;;9.27;1.95;;;13.80;99.90;;;;;;4259882;27;20046;-84
2023/03/24 10:58:59;;;;;;;11.27;1.27;;;14.10;99.90;;;;;;4265427;27;20035;-84
2023/03/24 11:01:01;;;;;;;11.98;2.08;;;14.50;99.90;;;;;;4238946;27;20051;-83